createdAt,value
2022-09-12T00:01:17.305Z,8.65
2022-09-12T00:03:51.072Z,7.57
2022-09-12T00:06:23.286Z,8.25
2022-09-12T00:09:08.413Z,8.65
2022-09-12T00:11:41.608Z,7.97
2022-09-12T00:14:10.697Z,8.93
2022-09-12T00:16:40.637Z,8.60
2022-09-12T00:19:08.828Z,8.10
2022-09-12T00:21:39.053Z,8.90
2022-09-12T00:24:06.592Z,8.25
2022-09-12T00:26:34.131Z,8.52
2022-09-12T00:29:04.247Z,8.95
2022-09-12T00:31:31.757Z,9.52
2022-09-12T00:34:01.345Z,10.02
2022-09-12T00:36:29.854Z,9.95
2022-09-12T00:39:01.616Z,10.32
2022-09-12T00:41:36.133Z,9.75
2022-09-12T00:44:12.451Z,9.32
2022-09-12T00:47:02.793Z,9.15
2022-09-12T00:49:36.795Z,9.35
2022-09-12T00:52:15.286Z,10.00
2022-09-12T00:54:52.349Z,9.43
2022-09-12T00:57:23.433Z,9.38
2022-09-12T01:00:01.915Z,9.07
2022-09-12T01:02:29.337Z,9.15
2022-09-12T01:04:56.971Z,9.45
2022-09-12T01:07:26.856Z,8.40
2022-09-12T01:09:53.939Z,9.18
2022-09-12T01:12:23.720Z,9.10
2022-09-12T01:14:53.515Z,9.50
2022-09-12T01:17:31.581Z,8.70
2022-09-12T01:20:11.174Z,8.93
2022-09-12T01:23:08.675Z,9.60
2022-09-12T01:25:54.623Z,8.27
2022-09-12T01:28:59.575Z,8.27
2022-09-12T01:32:01.756Z,8.70
2022-09-12T01:34:43.185Z,8.50
2022-09-12T01:37:38.443Z,9.23
2022-09-12T01:40:19.814Z,7.80
2022-09-12T01:42:54.163Z,9.07
2022-09-12T01:45:24.256Z,9.05
2022-09-12T01:47:59.199Z,8.57
2022-09-12T01:50:31.869Z,8.25
2022-09-12T01:53:08.785Z,8.45
2022-09-12T01:55:45.881Z,8.00
2022-09-12T01:58:19.565Z,8.10
2022-09-12T02:01:13.984Z,8.05
2022-09-12T02:04:14.689Z,8.55
2022-09-12T02:06:54.841Z,7.70
2022-09-12T02:09:29.527Z,7.88
2022-09-12T02:12:01.453Z,8.20
2022-09-12T02:14:36.595Z,8.07
2022-09-12T05:30:13.328Z,9.65
2022-09-12T05:32:40.828Z,8.70
2022-09-12T05:35:08.500Z,9.23
2022-09-12T05:37:35.722Z,9.60
2022-09-12T05:40:03.725Z,10.13
2022-09-12T05:42:31.210Z,10.60
2022-09-12T05:44:58.370Z,9.18
2022-09-12T05:47:26.329Z,9.75
2022-09-12T05:49:53.451Z,11.10
2022-09-12T05:52:22.999Z,10.82
2022-09-12T05:54:50.307Z,10.25
2022-09-12T05:57:19.771Z,10.45
2022-09-12T05:59:46.846Z,8.90
2022-09-12T06:02:16.788Z,8.70
2022-09-12T06:04:46.208Z,9.27
2022-09-12T06:07:13.523Z,8.32
2022-09-12T06:09:40.850Z,7.22
2022-09-12T06:12:08.056Z,6.05
2022-09-12T06:14:35.772Z,5.93
2022-09-12T06:17:03.087Z,5.72
2022-09-12T06:19:32.928Z,5.72
2022-09-12T06:21:59.945Z,5.43
2022-09-12T06:24:27.387Z,6.20
2022-09-12T06:26:54.530Z,6.78
2022-09-12T06:29:22.728Z,6.63
2022-09-12T06:31:52.647Z,6.55
2022-09-12T06:34:24.608Z,7.75
2022-09-12T06:36:54.549Z,7.68
2022-09-12T06:39:24.172Z,7.65
2022-09-12T06:41:53.678Z,7.15
2022-09-12T06:44:23.503Z,7.47
2022-09-12T06:46:50.827Z,7.93
2022-09-12T06:49:20.439Z,11.60
2022-09-12T06:51:50.091Z,11.90
2022-09-12T06:54:17.370Z,10.48
2022-09-12T06:56:45.211Z,8.48
2022-09-12T06:59:12.917Z,8.43
2022-09-12T07:01:40.498Z,7.72
2022-09-12T07:04:07.546Z,7.70
2022-09-12T07:06:43.424Z,8.25
2022-09-12T07:09:14.232Z,8.05
2022-09-12T07:11:46.140Z,8.43
2022-09-12T07:14:16.864Z,8.02
2022-09-12T07:16:46.571Z,9.13
2022-09-12T07:19:13.615Z,8.75
2022-09-12T07:21:43.398Z,8.00
2022-09-12T07:24:11.372Z,10.18
2022-09-12T07:26:40.805Z,8.23
2022-09-12T07:29:35.326Z,9.15
2022-09-12T07:32:03.556Z,7.63
2022-09-12T07:34:36.152Z,8.73
2022-09-12T07:37:04.640Z,8.13
2022-09-12T07:39:31.849Z,7.97
2022-09-12T07:41:58.995Z,7.78
2022-09-12T07:44:26.761Z,7.18
2022-09-12T07:46:53.805Z,7.00
2022-09-12T07:49:21.462Z,7.32
2022-09-12T07:51:48.860Z,7.75
2022-09-12T07:54:18.043Z,7.20
2022-09-12T07:56:45.123Z,7.13
2022-09-12T07:59:12.548Z,7.68
2022-09-12T08:01:39.652Z,6.40
2022-09-12T08:04:06.978Z,5.45
2022-09-12T08:06:34.933Z,6.43
2022-09-12T08:09:02.020Z,5.88
2022-09-12T08:11:32.313Z,5.53
2022-09-12T08:13:59.805Z,6.38
2022-09-12T08:16:31.081Z,5.15
2022-09-12T08:19:01.750Z,5.07
2022-09-12T08:21:31.104Z,5.72
2022-09-12T08:24:04.500Z,6.40
2022-09-12T08:28:35.801Z,5.90
2022-09-12T08:31:07.282Z,6.28
2022-09-12T08:33:36.986Z,5.57
2022-09-12T08:36:11.451Z,6.13
2022-09-12T08:38:41.047Z,5.93
2022-09-12T08:41:32.315Z,6.38
2022-09-12T08:44:29.975Z,6.05
2022-09-12T08:47:23.501Z,7.43
2022-09-12T08:50:09.180Z,6.75
2022-09-12T08:52:42.814Z,6.22
2022-09-12T08:57:53.730Z,5.97
2022-09-12T09:00:21.791Z,6.45
2022-09-12T09:03:00.610Z,6.45
2022-09-12T09:05:37.241Z,5.88
2022-09-12T09:08:32.139Z,6.05
2022-09-12T09:10:59.344Z,6.13
2022-09-12T09:13:38.676Z,5.72
2022-09-12T09:16:19.201Z,6.13
2022-09-12T09:18:48.025Z,6.00
2022-09-12T09:21:21.996Z,4.85
2022-09-12T09:23:57.184Z,5.20
2022-09-12T09:26:51.704Z,5.78
2022-09-12T09:29:30.005Z,5.55
2022-09-12T09:32:00.418Z,4.72
2022-09-12T09:34:31.613Z,4.10
2022-09-12T09:37:23.942Z,4.88
2022-09-12T09:40:19.046Z,5.30
2022-09-12T09:42:53.564Z,5.38
2022-09-12T09:45:24.165Z,4.47
2022-09-12T09:48:15.364Z,4.00
2022-09-12T09:50:43.491Z,4.22
2022-09-12T09:53:35.897Z,4.32
2022-09-12T09:56:09.174Z,3.65
2022-09-12T09:58:39.859Z,4.35
2022-09-12T10:01:15.291Z,4.20
2022-09-12T10:03:49.390Z,4.03
2022-09-12T10:06:24.782Z,4.30
2022-09-12T10:09:03.559Z,3.85
2022-09-12T10:11:32.734Z,3.60
2022-09-12T10:14:00.456Z,3.90
2022-09-12T10:16:47.868Z,3.58
2022-09-12T10:19:34.499Z,4.03
2022-09-12T10:22:05.668Z,4.22
2022-09-12T10:24:48.358Z,4.43
2022-09-12T10:27:19.348Z,4.65
2022-09-12T10:29:46.624Z,4.60
2022-09-12T10:32:30.381Z,4.95
2022-09-12T10:35:03.604Z,4.25
2022-09-12T10:37:36.371Z,4.35
2022-09-12T10:42:51.314Z,4.75
2022-09-12T10:45:32.137Z,40.33
2022-09-12T10:48:06.815Z,10.80
2022-09-12T10:50:44.145Z,5.72
2022-09-12T10:53:14.209Z,4.90
2022-09-12T10:55:53.033Z,5.10
2022-09-12T10:58:40.349Z,5.03
2022-09-12T11:01:32.073Z,4.90
2022-09-12T11:04:23.531Z,4.28
2022-09-12T11:07:02.525Z,5.30
2022-09-12T11:09:51.712Z,9.93
2022-09-12T11:12:27.819Z,12.57
2022-09-12T11:15:22.418Z,6.15
2022-09-12T11:17:58.439Z,5.15
2022-09-12T11:20:44.354Z,10.02
2022-09-12T11:23:24.841Z,16.65
2022-09-12T11:25:57.379Z,26.10
2022-09-12T11:28:47.966Z,9.48
2022-09-12T11:31:36.367Z,11.48
2022-09-12T11:34:09.035Z,28.02
2022-09-12T11:36:56.196Z,27.80
2022-09-12T11:39:34.589Z,15.02
2022-09-12T11:42:05.372Z,5.82
2022-09-12T11:44:43.147Z,4.82
2022-09-12T11:47:14.388Z,5.57
2022-09-12T11:49:49.982Z,6.38
2022-09-12T11:52:24.513Z,5.50
2022-09-12T11:55:03.626Z,5.72
2022-09-12T11:57:55.200Z,6.32
2022-09-12T12:00:32.090Z,4.82
2022-09-12T12:03:16.706Z,4.40
2022-09-12T12:05:55.273Z,5.13
2022-09-12T12:08:25.108Z,4.88
2022-09-12T12:10:58.023Z,4.80
2022-09-12T12:13:45.700Z,4.97
2022-09-12T12:16:21.231Z,4.97
2022-09-12T12:19:00.952Z,4.55
2022-09-12T12:21:44.196Z,4.20
2022-09-12T12:24:23.522Z,4.53
2022-09-12T12:26:50.688Z,4.35
2022-09-12T12:29:17.635Z,4.22
2022-09-12T12:32:00.361Z,5.18
2022-09-12T12:34:31.894Z,4.25
2022-09-12T12:37:20.094Z,4.30
2022-09-12T12:39:49.210Z,4.22
2022-09-12T12:42:34.521Z,4.28
2022-09-12T12:45:17.364Z,4.30
2022-09-12T12:47:48.787Z,5.53
2022-09-12T12:50:19.370Z,4.85
2022-09-12T12:52:55.377Z,4.47
2022-09-12T12:55:32.070Z,4.43
2022-09-12T12:58:03.600Z,4.53
2022-09-12T13:00:36.808Z,4.22
2022-09-12T13:03:06.874Z,4.22
2022-09-12T13:05:52.460Z,4.68
2022-09-12T13:08:19.480Z,4.60
2022-09-12T13:10:58.040Z,4.60
2022-09-12T13:13:50.877Z,4.63
2022-09-12T13:16:58.495Z,4.47
2022-09-12T13:19:35.936Z,4.00
2022-09-12T13:22:07.519Z,4.30
2022-09-12T13:24:46.250Z,4.00
2022-09-12T13:27:22.364Z,4.20
2022-09-12T13:30:07.124Z,4.90
2022-09-12T13:32:35.490Z,4.43
2022-09-12T13:35:45.238Z,4.53
2022-09-12T13:38:40.212Z,6.20
2022-09-12T13:41:48.726Z,6.50
2022-09-12T13:44:20.966Z,5.18
2022-09-12T13:46:48.917Z,5.50
2022-09-12T13:49:48.430Z,5.70
2022-09-12T13:52:25.698Z,5.40
2022-09-12T13:54:55.704Z,4.72
2022-09-12T13:57:35.625Z,5.00
2022-09-12T14:00:07.768Z,5.07
2022-09-12T14:02:36.778Z,4.95
2022-09-12T14:05:22.692Z,4.60
2022-09-12T14:07:52.595Z,4.63
2022-09-12T14:10:43.004Z,4.55
2022-09-12T14:13:11.734Z,29.40
2022-09-12T14:15:44.349Z,15.52
2022-09-12T14:18:28.658Z,8.65
2022-09-12T14:20:59.880Z,5.15
2022-09-12T14:23:32.562Z,4.38
2022-09-12T14:26:05.376Z,5.30
2022-09-12T14:28:33.952Z,5.20
2022-09-12T14:31:23.386Z,4.68
2022-09-12T14:33:55.623Z,4.60
2022-09-12T14:36:35.301Z,4.93
2022-09-12T14:39:18.226Z,5.40
2022-09-12T14:41:46.062Z,5.50
2022-09-12T14:44:23.537Z,6.70
2022-09-12T14:46:51.771Z,6.70
2022-09-12T14:49:21.282Z,6.80
2022-09-12T14:51:51.794Z,5.90
2022-09-12T14:54:38.866Z,5.80
2022-09-12T14:57:35.111Z,5.30
2022-09-12T15:00:11.563Z,5.43
2022-09-12T15:02:42.390Z,6.75
2022-09-12T15:05:13.127Z,4.60
2022-09-12T15:07:54.420Z,7.95
2022-09-12T15:10:38.142Z,6.35
2022-09-12T15:13:08.765Z,5.32
2022-09-12T15:15:37.351Z,5.28
2022-09-12T15:18:06.925Z,5.40
2022-09-12T15:20:38.249Z,4.90
2022-09-12T15:23:10.519Z,4.78
2022-09-12T15:25:37.670Z,6.10
2022-09-12T15:28:18.155Z,5.57
2022-09-12T15:30:50.162Z,5.35
2022-09-12T15:33:23.919Z,4.75
2022-09-12T15:35:54.057Z,4.60
2022-09-12T15:38:25.781Z,5.32
2022-09-12T15:40:54.837Z,5.32
2022-09-12T15:43:23.229Z,4.90
2022-09-12T15:45:53.421Z,4.38
2022-09-12T15:48:21.107Z,5.75
2022-09-12T15:50:50.694Z,4.88
2022-09-12T15:53:18.052Z,5.43
2022-09-12T15:55:45.663Z,4.90
2022-09-12T15:58:13.024Z,4.85
2022-09-12T16:00:42.855Z,5.45
2022-09-12T16:03:21.612Z,5.63
2022-09-12T16:05:49.284Z,5.28
2022-09-12T16:08:21.075Z,5.05
2022-09-12T16:10:52.828Z,5.07
2022-09-12T16:13:20.313Z,5.53
2022-09-12T16:15:50.131Z,5.03
2022-09-12T16:18:17.515Z,5.03
2022-09-12T16:20:47.345Z,5.47
2022-09-12T16:23:14.411Z,5.70
2022-09-12T16:25:41.503Z,22.25
2022-09-12T16:28:09.815Z,75.63
2022-09-12T16:30:36.892Z,42.55
2022-09-12T16:33:04.313Z,15.93
2022-09-12T16:35:32.271Z,7.78
2022-09-12T16:37:59.449Z,6.57
2022-09-12T16:40:26.580Z,5.78
2022-09-12T16:42:54.058Z,9.45
2022-09-12T16:45:21.144Z,25.45
2022-09-12T16:47:48.210Z,9.85
2022-09-12T16:50:18.083Z,6.80
2022-09-12T16:52:45.171Z,6.97
2022-09-12T16:55:12.527Z,9.23
2022-09-12T16:57:40.354Z,9.27
2022-09-12T17:00:10.819Z,7.03
2022-09-12T17:02:42.629Z,6.32
2022-09-12T17:05:09.999Z,5.72
2022-09-12T17:07:39.740Z,5.32
2022-09-12T17:10:09.716Z,6.03
2022-09-12T17:12:37.125Z,6.50
2022-09-12T17:15:04.717Z,6.63
2022-09-12T17:17:32.254Z,6.25
2022-09-12T17:20:00.091Z,6.60
2022-09-12T17:22:27.271Z,8.23
2022-09-12T17:24:54.631Z,7.35
2022-09-12T17:27:21.974Z,7.57
2022-09-12T17:29:49.387Z,8.70
2022-09-12T17:32:18.769Z,8.23
2022-09-12T17:34:49.178Z,8.25
2022-09-12T17:37:16.928Z,8.43
2022-09-12T17:39:44.694Z,9.23
2022-09-12T17:42:12.131Z,9.40
2022-09-12T17:44:42.868Z,11.45
2022-09-12T17:47:10.544Z,13.25
2022-09-12T17:49:40.528Z,11.85
2022-09-12T17:52:07.690Z,12.13
2022-09-12T17:54:37.979Z,12.95
2022-09-12T17:57:10.038Z,13.77
2022-09-12T17:59:37.394Z,11.68
2022-09-12T18:02:04.675Z,12.88
2022-09-12T18:04:35.153Z,11.82
2022-09-12T18:07:03.872Z,11.77
2022-09-12T18:09:31.370Z,10.48
2022-09-12T18:11:59.025Z,10.05
2022-09-12T18:14:27.682Z,9.02
2022-09-12T18:16:54.912Z,8.73
2022-09-12T18:19:22.854Z,7.65
2022-09-12T18:21:53.662Z,7.60
2022-09-12T18:24:21.666Z,7.10
2022-09-12T18:26:52.026Z,7.95
2022-09-12T18:29:23.675Z,7.70
2022-09-12T18:31:51.217Z,8.43
2022-09-12T18:34:23.003Z,7.20
2022-09-12T18:36:52.332Z,6.90
2022-09-12T18:39:26.888Z,8.32
2022-09-12T18:41:55.371Z,8.80
2022-09-12T18:44:25.366Z,9.90
2022-09-12T18:46:52.570Z,9.98
2022-09-12T18:49:20.185Z,10.80
2022-09-12T18:51:47.711Z,11.20
2022-09-12T18:54:25.061Z,12.29
2022-09-12T18:56:54.527Z,10.75
2022-09-12T18:59:21.756Z,13.60
2022-09-12T19:01:49.039Z,11.35
2022-09-12T19:04:16.283Z,10.65
2022-09-12T19:06:46.393Z,10.77
2022-09-12T19:09:17.269Z,11.10
2022-09-12T19:11:46.690Z,10.82
2022-09-12T19:14:13.722Z,12.25
2022-09-12T19:16:41.196Z,11.88
2022-09-12T19:19:08.655Z,10.20
2022-09-12T19:21:35.969Z,10.85
2022-09-12T19:24:10.303Z,12.48
2022-09-12T19:26:38.867Z,11.55
2022-09-12T19:29:07.085Z,12.00
2022-09-12T19:31:34.626Z,12.77
2022-09-12T19:34:07.849Z,12.85
2022-09-12T19:36:50.719Z,13.10
2022-09-12T19:39:18.638Z,13.57
2022-09-12T19:41:46.221Z,12.88
2022-09-12T19:44:16.285Z,13.70
2022-09-12T19:46:43.988Z,14.23
2022-09-12T19:49:12.177Z,14.80
2022-09-12T19:51:41.690Z,15.63
2022-09-12T19:54:11.890Z,15.00
2022-09-12T19:56:39.048Z,15.23
2022-09-12T19:59:06.347Z,13.65
2022-09-12T20:01:33.779Z,13.82
2022-09-12T20:04:01.257Z,13.90
2022-09-12T20:06:28.410Z,15.00
2022-09-12T20:08:56.071Z,16.10
2022-09-12T20:11:26.067Z,15.57
2022-09-12T20:13:56.134Z,15.98
2022-09-12T20:16:28.487Z,16.05
2022-09-12T20:19:01.632Z,16.10
2022-09-12T20:21:32.303Z,15.38
2022-09-12T20:24:05.014Z,15.52
2022-09-12T20:26:35.057Z,17.13
2022-09-12T20:29:07.596Z,17.08
2022-09-12T20:31:36.711Z,11.88
2022-09-12T20:34:05.220Z,17.55
2022-09-12T20:36:32.888Z,16.92
2022-09-12T20:39:01.802Z,16.90
2022-09-12T20:41:31.331Z,16.35
2022-09-12T20:43:58.486Z,16.52
2022-09-12T20:46:29.120Z,20.42
2022-09-12T20:48:56.798Z,21.42
2022-09-12T20:51:29.032Z,17.48
2022-09-12T20:54:00.632Z,17.38
2022-09-12T20:56:28.756Z,16.10
2022-09-12T20:58:56.578Z,30.08
2022-09-12T21:01:25.172Z,35.08
2022-09-12T21:03:53.532Z,31.45
2022-09-12T21:06:21.093Z,19.50
2022-09-12T21:08:49.374Z,17.25
2022-09-12T21:11:21.637Z,15.13
2022-09-12T21:13:48.849Z,16.08
2022-09-12T21:16:19.571Z,15.25
2022-09-12T21:18:47.218Z,15.38
2022-09-12T21:21:17.205Z,15.40
2022-09-12T21:23:44.501Z,16.75
2022-09-12T21:26:11.551Z,16.73
2022-09-12T21:28:38.683Z,15.93
2022-09-12T21:31:09.037Z,17.55
2022-09-12T21:33:40.775Z,17.67
2022-09-12T21:36:08.655Z,18.08
2022-09-12T21:38:35.952Z,18.15
2022-09-12T21:41:14.622Z,19.45
2022-09-12T21:43:47.603Z,21.52
2022-09-12T21:46:17.208Z,27.38
2022-09-12T21:48:47.011Z,25.10
2022-09-12T21:51:14.039Z,25.48
2022-09-12T21:53:43.838Z,22.75
2022-09-12T21:56:13.543Z,20.80
2022-09-12T21:58:42.913Z,19.98
2022-09-12T22:01:12.696Z,42.88
2022-09-12T22:03:40.271Z,35.92
2022-09-12T22:06:09.861Z,40.63
2022-09-12T22:08:41.708Z,23.95
2022-09-12T22:11:11.346Z,19.50
2022-09-12T22:13:40.915Z,18.15
2022-09-12T22:16:10.948Z,17.50
2022-09-12T22:18:39.002Z,16.63
2022-09-12T22:21:15.122Z,16.80
2022-09-12T22:23:42.853Z,15.05
2022-09-12T22:26:09.908Z,14.40
2022-09-12T22:28:37.029Z,14.32
2022-09-12T22:31:04.814Z,16.40
2022-09-12T22:33:36.278Z,16.65
2022-09-12T22:36:03.660Z,15.80
2022-09-12T22:38:31.318Z,14.60
2022-09-12T22:40:58.320Z,15.80
2022-09-12T22:43:25.902Z,14.60
2022-09-12T22:45:53.040Z,14.85
2022-09-12T22:48:25.275Z,14.48
2022-09-12T22:50:52.698Z,15.73
2022-09-12T22:53:20.345Z,15.90
2022-09-12T22:55:47.818Z,15.32
2022-09-12T22:58:15.236Z,13.65
2022-09-12T23:00:49.707Z,14.88
2022-09-12T23:03:17.981Z,13.73
2022-09-12T23:05:48.592Z,14.25
2022-09-12T23:08:17.478Z,13.50
2022-09-12T23:10:44.935Z,12.30
2022-09-12T23:13:12.444Z,14.30
2022-09-12T23:15:40.437Z,13.25
2022-09-12T23:18:07.746Z,12.95
2022-09-12T23:20:34.759Z,11.70
2022-09-12T23:23:01.818Z,12.40
2022-09-12T23:25:29.201Z,13.50
2022-09-12T23:27:58.651Z,14.93
2022-09-12T23:30:25.669Z,18.15
2022-09-12T23:32:53.150Z,20.80
2022-09-12T23:35:22.731Z,17.45
2022-09-12T23:37:49.706Z,16.88
2022-09-12T23:40:19.232Z,16.95
2022-09-12T23:42:46.347Z,15.32
2022-09-12T23:45:16.017Z,18.65
2022-09-12T23:47:43.575Z,19.40
2022-09-12T23:50:12.899Z,17.73
2022-09-12T23:52:42.297Z,17.20
2022-09-12T23:55:09.697Z,14.93
2022-09-12T23:57:36.851Z,12.55
